sensor_id;sensor_type;location;lat;lon;timestamp;P1;durP1;ratioP1;P2;durP2;ratioP2
4756;SDS011;2392;52.578;13.426;2023-03-31T00:01:31;4.80;;;2.90;;
4756;SDS011;2392;52.578;13.426;2023-03-31T00:03:59;7.90;;;3.00;;
4756;SDS011;2392;52.578;13.426;2023-03-31T00:06:29;9.80;;;2.80;;
4756;SDS011;2392;52.578;13.426;2023-03-31T00:09:02;5.97;;;2.67;;
4756;SDS011;2392;52.578;13.426;2023-03-31T00:11:29;4.13;;;2.40;;
4756;SDS011;2392;52.578;13.426;2023-03-31T00:13:57;6.63;;;2.67;;
4756;SDS011;2392;52.578;13.426;2023-03-31T00:16:25;3.50;;;2.47;;
4756;SDS011;2392;52.578;13.426;2023-03-31T00:18:52;11.00;;;2.63;;
4756;SDS011;2392;52.578;13.426;2023-03-31T00:21:20;2.87;;;2.50;;
4756;SDS011;2392;52.578;13.426;2023-03-31T00:23:54;4.47;;;2.63;;
4756;SDS011;2392;52.578;13.426;2023-03-31T00:26:23;4.43;;;2.80;;
4756;SDS011;2392;52.578;13.426;2023-03-31T00:28:50;4.33;;;2.00;;
4756;SDS011;2392;52.578;13.426;2023-03-31T00:31:19;8.53;;;2.37;;
4756;SDS011;2392;52.578;13.426;2023-03-31T00:33:47;5.70;;;2.60;;
4756;SDS011;2392;52.578;13.426;2023-03-31T00:36:15;11.17;;;2.60;;
4756;SDS011;2392;52.578;13.426;2023-03-31T00:38:45;4.50;;;1.87;;
4756;SDS011;2392;52.578;13.426;2023-03-31T00:41:13;4.43;;;2.17;;
4756;SDS011;2392;52.578;13.426;2023-03-31T00:43:41;10.73;;;3.20;;
4756;SDS011;2392;52.578;13.426;2023-03-31T00:46:25;3.70;;;2.33;;
4756;SDS011;2392;52.578;13.426;2023-03-31T00:48:56;5.33;;;2.20;;
4756;SDS011;2392;52.578;13.426;2023-03-31T00:51:24;4.53;;;2.40;;
4756;SDS011;2392;52.578;13.426;2023-03-31T00:53:53;7.60;;;2.80;;
4756;SDS011;2392;52.578;13.426;2023-03-31T00:56:24;11.10;;;2.33;;
4756;SDS011;2392;52.578;13.426;2023-03-31T00:58:54;4.20;;;2.00;;
4756;SDS011;2392;52.578;13.426;2023-03-31T01:01:27;6.97;;;1.80;;
4756;SDS011;2392;52.578;13.426;2023-03-31T01:03:55;4.13;;;2.20;;
4756;SDS011;2392;52.578;13.426;2023-03-31T01:06:23;4.30;;;2.53;;
4756;SDS011;2392;52.578;13.426;2023-03-31T01:08:54;6.80;;;2.30;;
4756;SDS011;2392;52.578;13.426;2023-03-31T01:11:23;6.73;;;2.00;;
4756;SDS011;2392;52.578;13.426;2023-03-31T01:13:54;6.17;;;2.30;;
4756;SDS011;2392;52.578;13.426;2023-03-31T01:16:22;5.70;;;2.10;;
4756;SDS011;2392;52.578;13.426;2023-03-31T01:18:51;7.30;;;2.40;;
4756;SDS011;2392;52.578;13.426;2023-03-31T01:24:49;3.70;;;2.53;;
4756;SDS011;2392;52.578;13.426;2023-03-31T01:37:06;6.83;;;2.07;;
4756;SDS011;2392;52.578;13.426;2023-03-31T01:40:02;5.50;;;2.07;;
4756;SDS011;2392;52.578;13.426;2023-03-31T01:42:41;2.93;;;1.67;;
4756;SDS011;2392;52.578;13.426;2023-03-31T01:45:16;2.73;;;1.90;;
4756;SDS011;2392;52.578;13.426;2023-03-31T01:47:52;4.97;;;2.73;;
4756;SDS011;2392;52.578;13.426;2023-03-31T01:50:24;5.30;;;2.13;;
4756;SDS011;2392;52.578;13.426;2023-03-31T01:52:55;4.77;;;1.70;;
4756;SDS011;2392;52.578;13.426;2023-03-31T01:55:29;6.43;;;2.17;;
4756;SDS011;2392;52.578;13.426;2023-03-31T01:58:02;2.93;;;1.97;;
4756;SDS011;2392;52.578;13.426;2023-03-31T02:00:35;5.83;;;2.30;;
4756;SDS011;2392;52.578;13.426;2023-03-31T02:03:08;9.40;;;2.20;;
4756;SDS011;2392;52.578;13.426;2023-03-31T02:05:42;5.50;;;1.77;;
4756;SDS011;2392;52.578;13.426;2023-03-31T02:08:13;7.70;;;2.20;;
4756;SDS011;2392;52.578;13.426;2023-03-31T02:10:46;4.67;;;1.80;;
4756;SDS011;2392;52.578;13.426;2023-03-31T02:13:15;1.83;;;1.40;;
4756;SDS011;2392;52.578;13.426;2023-03-31T02:15:45;6.00;;;1.87;;
4756;SDS011;2392;52.578;13.426;2023-03-31T02:18:16;7.70;;;2.57;;
4756;SDS011;2392;52.578;13.426;2023-03-31T02:20:46;8.27;;;2.30;;
4756;SDS011;2392;52.578;13.426;2023-03-31T02:23:16;2.10;;;2.00;;
4756;SDS011;2392;52.578;13.426;2023-03-31T02:25:52;6.77;;;2.23;;
4756;SDS011;2392;52.578;13.426;2023-03-31T02:28:24;4.40;;;1.90;;
4756;SDS011;2392;52.578;13.426;2023-03-31T02:30:57;3.80;;;1.83;;
4756;SDS011;2392;52.578;13.426;2023-03-31T02:33:32;2.83;;;1.70;;
4756;SDS011;2392;52.578;13.426;2023-03-31T02:36:00;7.17;;;1.40;;
4756;SDS011;2392;52.578;13.426;2023-03-31T02:38:28;3.27;;;1.77;;
4756;SDS011;2392;52.578;13.426;2023-03-31T02:40:59;2.90;;;1.60;;
4756;SDS011;2392;52.578;13.426;2023-03-31T02:43:26;3.53;;;2.13;;
4756;SDS011;2392;52.578;13.426;2023-03-31T02:45:53;5.17;;;2.30;;
4756;SDS011;2392;52.578;13.426;2023-03-31T02:48:21;6.23;;;2.13;;
4756;SDS011;2392;52.578;13.426;2023-03-31T02:53:55;3.97;;;2.70;;
4756;SDS011;2392;52.578;13.426;2023-03-31T02:56:57;6.10;;;2.67;;
4756;SDS011;2392;52.578;13.426;2023-03-31T02:59:47;2.83;;;1.80;;
4756;SDS011;2392;52.578;13.426;2023-03-31T03:02:25;7.60;;;2.10;;
4756;SDS011;2392;52.578;13.426;2023-03-31T03:05:10;2.87;;;1.93;;
4756;SDS011;2392;52.578;13.426;2023-03-31T03:08:07;4.40;;;1.67;;
4756;SDS011;2392;52.578;13.426;2023-03-31T03:10:44;5.43;;;1.90;;
4756;SDS011;2392;52.578;13.426;2023-03-31T03:13:25;6.90;;;1.87;;
4756;SDS011;2392;52.578;13.426;2023-03-31T03:16:02;3.70;;;1.40;;
4756;SDS011;2392;52.578;13.426;2023-03-31T03:18:34;5.80;;;1.90;;
4756;SDS011;2392;52.578;13.426;2023-03-31T03:21:01;4.27;;;1.70;;
4756;SDS011;2392;52.578;13.426;2023-03-31T03:23:28;4.47;;;1.90;;
4756;SDS011;2392;52.578;13.426;2023-03-31T03:25:55;5.60;;;1.87;;
4756;SDS011;2392;52.578;13.426;2023-03-31T03:28:24;4.03;;;1.90;;
4756;SDS011;2392;52.578;13.426;2023-03-31T03:30:51;2.80;;;1.53;;
4756;SDS011;2392;52.578;13.426;2023-03-31T03:33:18;2.60;;;1.50;;
4756;SDS011;2392;52.578;13.426;2023-03-31T03:35:49;7.33;;;2.50;;
4756;SDS011;2392;52.578;13.426;2023-03-31T03:38:16;6.70;;;1.40;;
4756;SDS011;2392;52.578;13.426;2023-03-31T03:40:42;3.77;;;1.47;;
4756;SDS011;2392;52.578;13.426;2023-03-31T03:43:10;1.90;;;1.27;;
4756;SDS011;2392;52.578;13.426;2023-03-31T03:45:39;3.33;;;1.33;;
4756;SDS011;2392;52.578;13.426;2023-03-31T03:48:05;4.10;;;1.50;;
4756;SDS011;2392;52.578;13.426;2023-03-31T03:50:34;3.43;;;1.70;;
4756;SDS011;2392;52.578;13.426;2023-03-31T03:53:03;3.07;;;1.67;;
4756;SDS011;2392;52.578;13.426;2023-03-31T03:55:30;4.03;;;1.40;;
4756;SDS011;2392;52.578;13.426;2023-03-31T03:57:57;3.20;;;1.70;;
4756;SDS011;2392;52.578;13.426;2023-03-31T04:00:24;3.63;;;1.63;;
4756;SDS011;2392;52.578;13.426;2023-03-31T04:02:53;2.40;;;1.30;;
4756;SDS011;2392;52.578;13.426;2023-03-31T04:05:20;2.43;;;1.30;;
4756;SDS011;2392;52.578;13.426;2023-03-31T04:07:47;4.37;;;2.13;;
4756;SDS011;2392;52.578;13.426;2023-03-31T04:10:14;4.70;;;1.60;;
4756;SDS011;2392;52.578;13.426;2023-03-31T04:12:41;1.83;;;1.40;;
4756;SDS011;2392;52.578;13.426;2023-03-31T04:15:08;1.40;;;1.30;;
4756;SDS011;2392;52.578;13.426;2023-03-31T04:17:36;7.40;;;2.33;;
4756;SDS011;2392;52.578;13.426;2023-03-31T04:20:05;2.57;;;1.30;;
4756;SDS011;2392;52.578;13.426;2023-03-31T04:22:33;2.30;;;1.33;;
4756;SDS011;2392;52.578;13.426;2023-03-31T04:25:05;1.77;;;1.17;;
4756;SDS011;2392;52.578;13.426;2023-03-31T04:27:39;3.13;;;1.63;;
4756;SDS011;2392;52.578;13.426;2023-03-31T04:30:11;4.80;;;2.03;;
4756;SDS011;2392;52.578;13.426;2023-03-31T04:32:46;2.77;;;1.87;;
4756;SDS011;2392;52.578;13.426;2023-03-31T04:35:16;7.37;;;1.80;;
4756;SDS011;2392;52.578;13.426;2023-03-31T04:37:45;6.23;;;2.03;;
4756;SDS011;2392;52.578;13.426;2023-03-31T04:40:12;2.70;;;1.50;;
4756;SDS011;2392;52.578;13.426;2023-03-31T04:42:40;2.97;;;1.50;;
4756;SDS011;2392;52.578;13.426;2023-03-31T04:45:08;5.20;;;2.30;;
4756;SDS011;2392;52.578;13.426;2023-03-31T04:47:35;2.17;;;1.57;;
4756;SDS011;2392;52.578;13.426;2023-03-31T04:50:03;4.17;;;1.53;;
4756;SDS011;2392;52.578;13.426;2023-03-31T04:52:32;3.97;;;1.70;;
4756;SDS011;2392;52.578;13.426;2023-03-31T04:54:59;2.60;;;2.00;;
4756;SDS011;2392;52.578;13.426;2023-03-31T04:57:26;3.30;;;1.80;;
4756;SDS011;2392;52.578;13.426;2023-03-31T04:59:53;3.73;;;1.70;;
4756;SDS011;2392;52.578;13.426;2023-03-31T05:02:20;3.00;;;1.50;;
4756;SDS011;2392;52.578;13.426;2023-03-31T05:04:48;4.57;;;1.43;;
4756;SDS011;2392;52.578;13.426;2023-03-31T05:07:15;5.60;;;1.77;;
4756;SDS011;2392;52.578;13.426;2023-03-31T05:09:44;6.03;;;2.23;;
4756;SDS011;2392;52.578;13.426;2023-03-31T05:12:11;3.07;;;1.53;;
4756;SDS011;2392;52.578;13.426;2023-03-31T05:14:38;6.57;;;2.23;;
4756;SDS011;2392;52.578;13.426;2023-03-31T05:17:05;3.90;;;1.67;;
4756;SDS011;2392;52.578;13.426;2023-03-31T05:19:32;3.90;;;2.23;;
4756;SDS011;2392;52.578;13.426;2023-03-31T05:21:59;4.80;;;1.53;;
4756;SDS011;2392;52.578;13.426;2023-03-31T05:24:26;4.40;;;1.80;;
4756;SDS011;2392;52.578;13.426;2023-03-31T05:26:55;5.70;;;1.70;;
4756;SDS011;2392;52.578;13.426;2023-03-31T05:29:22;8.23;;;1.80;;
4756;SDS011;2392;52.578;13.426;2023-03-31T05:31:50;4.50;;;2.13;;
4756;SDS011;2392;52.578;13.426;2023-03-31T05:34:18;5.87;;;1.57;;
4756;SDS011;2392;52.578;13.426;2023-03-31T05:36:45;3.33;;;1.80;;
4756;SDS011;2392;52.578;13.426;2023-03-31T05:39:14;5.43;;;2.03;;
4756;SDS011;2392;52.578;13.426;2023-03-31T05:41:42;5.07;;;1.90;;
4756;SDS011;2392;52.578;13.426;2023-03-31T05:44:11;5.73;;;1.77;;
4756;SDS011;2392;52.578;13.426;2023-03-31T05:46:38;3.00;;;1.80;;
4756;SDS011;2392;52.578;13.426;2023-03-31T05:49:05;8.70;;;2.00;;
4756;SDS011;2392;52.578;13.426;2023-03-31T05:51:32;2.63;;;1.63;;
4756;SDS011;2392;52.578;13.426;2023-03-31T05:53:59;4.90;;;1.60;;
4756;SDS011;2392;52.578;13.426;2023-03-31T05:56:26;5.83;;;1.53;;
4756;SDS011;2392;52.578;13.426;2023-03-31T05:58:53;5.40;;;2.23;;
4756;SDS011;2392;52.578;13.426;2023-03-31T06:01:22;7.50;;;1.83;;
4756;SDS011;2392;52.578;13.426;2023-03-31T06:03:49;6.93;;;2.03;;
4756;SDS011;2392;52.578;13.426;2023-03-31T06:06:16;4.00;;;2.00;;
4756;SDS011;2392;52.578;13.426;2023-03-31T06:08:45;2.53;;;1.70;;
4756;SDS011;2392;52.578;13.426;2023-03-31T06:11:13;9.03;;;2.40;;
4756;SDS011;2392;52.578;13.426;2023-03-31T06:13:41;7.63;;;2.37;;
4756;SDS011;2392;52.578;13.426;2023-03-31T06:16:09;4.93;;;1.90;;
4756;SDS011;2392;52.578;13.426;2023-03-31T06:18:38;8.73;;;2.60;;
4756;SDS011;2392;52.578;13.426;2023-03-31T06:21:05;3.20;;;2.07;;
4756;SDS011;2392;52.578;13.426;2023-03-31T06:23:33;13.70;;;2.00;;
4756;SDS011;2392;52.578;13.426;2023-03-31T06:26:01;2.30;;;2.07;;
4756;SDS011;2392;52.578;13.426;2023-03-31T06:28:29;7.20;;;2.10;;
4756;SDS011;2392;52.578;13.426;2023-03-31T06:30:59;3.60;;;2.17;;
4756;SDS011;2392;52.578;13.426;2023-03-31T06:33:27;9.20;;;1.80;;
4756;SDS011;2392;52.578;13.426;2023-03-31T06:35:56;10.37;;;2.23;;
4756;SDS011;2392;52.578;13.426;2023-03-31T06:38:23;9.30;;;1.63;;
4756;SDS011;2392;52.578;13.426;2023-03-31T06:40:51;7.37;;;2.40;;
4756;SDS011;2392;52.578;13.426;2023-03-31T06:43:18;2.77;;;1.63;;
4756;SDS011;2392;52.578;13.426;2023-03-31T06:45:45;4.73;;;2.30;;
4756;SDS011;2392;52.578;13.426;2023-03-31T06:48:12;3.60;;;2.00;;
4756;SDS011;2392;52.578;13.426;2023-03-31T06:50:40;9.57;;;2.30;;
4756;SDS011;2392;52.578;13.426;2023-03-31T06:53:08;3.40;;;1.67;;
4756;SDS011;2392;52.578;13.426;2023-03-31T06:55:36;5.17;;;2.50;;
4756;SDS011;2392;52.578;13.426;2023-03-31T06:58:03;6.30;;;2.20;;
4756;SDS011;2392;52.578;13.426;2023-03-31T07:00:30;3.90;;;2.50;;
4756;SDS011;2392;52.578;13.426;2023-03-31T07:02:58;5.30;;;2.20;;
4756;SDS011;2392;52.578;13.426;2023-03-31T07:05:25;5.30;;;1.97;;
4756;SDS011;2392;52.578;13.426;2023-03-31T07:07:53;5.63;;;2.60;;
4756;SDS011;2392;52.578;13.426;2023-03-31T07:10:22;4.53;;;2.20;;
4756;SDS011;2392;52.578;13.426;2023-03-31T07:12:51;4.47;;;1.70;;
4756;SDS011;2392;52.578;13.426;2023-03-31T07:15:18;5.40;;;1.77;;
4756;SDS011;2392;52.578;13.426;2023-03-31T07:17:45;5.90;;;2.20;;
4756;SDS011;2392;52.578;13.426;2023-03-31T07:20:15;6.03;;;2.70;;
4756;SDS011;2392;52.578;13.426;2023-03-31T07:22:44;17.00;;;3.07;;
4756;SDS011;2392;52.578;13.426;2023-03-31T07:25:12;4.03;;;2.30;;
4756;SDS011;2392;52.578;13.426;2023-03-31T07:27:42;5.13;;;2.57;;
4756;SDS011;2392;52.578;13.426;2023-03-31T07:30:10;9.10;;;2.33;;
4756;SDS011;2392;52.578;13.426;2023-03-31T07:32:40;6.63;;;2.37;;
4756;SDS011;2392;52.578;13.426;2023-03-31T07:35:07;6.60;;;2.43;;
4756;SDS011;2392;52.578;13.426;2023-03-31T07:37:36;7.50;;;2.50;;
4756;SDS011;2392;52.578;13.426;2023-03-31T07:40:04;5.80;;;2.23;;
4756;SDS011;2392;52.578;13.426;2023-03-31T07:42:32;5.13;;;1.80;;
4756;SDS011;2392;52.578;13.426;2023-03-31T07:45:01;8.83;;;2.23;;
4756;SDS011;2392;52.578;13.426;2023-03-31T07:47:30;6.40;;;3.13;;
4756;SDS011;2392;52.578;13.426;2023-03-31T07:49:57;4.00;;;2.17;;
4756;SDS011;2392;52.578;13.426;2023-03-31T07:52:24;4.23;;;1.93;;
4756;SDS011;2392;52.578;13.426;2023-03-31T07:54:51;9.37;;;2.73;;
4756;SDS011;2392;52.578;13.426;2023-03-31T07:57:18;5.67;;;2.40;;
4756;SDS011;2392;52.578;13.426;2023-03-31T07:59:45;6.60;;;1.70;;
4756;SDS011;2392;52.578;13.426;2023-03-31T08:02:14;7.83;;;3.27;;
4756;SDS011;2392;52.578;13.426;2023-03-31T08:04:42;5.03;;;2.20;;
4756;SDS011;2392;52.578;13.426;2023-03-31T08:07:10;8.67;;;2.20;;
4756;SDS011;2392;52.578;13.426;2023-03-31T08:09:38;4.43;;;2.27;;
4756;SDS011;2392;52.578;13.426;2023-03-31T08:12:06;3.93;;;2.23;;
4756;SDS011;2392;52.578;13.426;2023-03-31T08:14:33;3.73;;;1.83;;
4756;SDS011;2392;52.578;13.426;2023-03-31T08:17:00;5.23;;;2.40;;
4756;SDS011;2392;52.578;13.426;2023-03-31T08:19:29;12.00;;;2.87;;
4756;SDS011;2392;52.578;13.426;2023-03-31T08:21:56;8.53;;;1.87;;
4756;SDS011;2392;52.578;13.426;2023-03-31T08:24:23;5.47;;;2.00;;
4756;SDS011;2392;52.578;13.426;2023-03-31T08:26:50;9.33;;;2.50;;
4756;SDS011;2392;52.578;13.426;2023-03-31T08:29:17;6.47;;;2.23;;
4756;SDS011;2392;52.578;13.426;2023-03-31T08:31:44;5.37;;;2.33;;
4756;SDS011;2392;52.578;13.426;2023-03-31T08:34:11;3.70;;;1.77;;
4756;SDS011;2392;52.578;13.426;2023-03-31T08:36:39;4.37;;;2.17;;
4756;SDS011;2392;52.578;13.426;2023-03-31T08:39:07;8.53;;;2.17;;
4756;SDS011;2392;52.578;13.426;2023-03-31T08:41:36;2.17;;;2.00;;
4756;SDS011;2392;52.578;13.426;2023-03-31T08:44:13;12.50;;;2.00;;
4756;SDS011;2392;52.578;13.426;2023-03-31T08:46:44;4.30;;;1.90;;
4756;SDS011;2392;52.578;13.426;2023-03-31T08:49:13;4.10;;;2.03;;
4756;SDS011;2392;52.578;13.426;2023-03-31T08:51:46;4.63;;;1.90;;
4756;SDS011;2392;52.578;13.426;2023-03-31T08:54:16;5.83;;;2.10;;
4756;SDS011;2392;52.578;13.426;2023-03-31T08:56:47;7.50;;;2.57;;
4756;SDS011;2392;52.578;13.426;2023-03-31T08:59:17;8.37;;;2.27;;
4756;SDS011;2392;52.578;13.426;2023-03-31T09:01:52;5.20;;;2.47;;
4756;SDS011;2392;52.578;13.426;2023-03-31T09:04:36;4.47;;;1.90;;
4756;SDS011;2392;52.578;13.426;2023-03-31T09:07:18;6.93;;;2.23;;
4756;SDS011;2392;52.578;13.426;2023-03-31T09:09:53;9.43;;;2.50;;
4756;SDS011;2392;52.578;13.426;2023-03-31T09:12:28;5.00;;;1.90;;
4756;SDS011;2392;52.578;13.426;2023-03-31T09:15:00;7.60;;;2.97;;
4756;SDS011;2392;52.578;13.426;2023-03-31T09:17:36;7.63;;;2.13;;
4756;SDS011;2392;52.578;13.426;2023-03-31T09:20:10;10.00;;;2.07;;
4756;SDS011;2392;52.578;13.426;2023-03-31T09:22:42;7.03;;;2.40;;
4756;SDS011;2392;52.578;13.426;2023-03-31T09:25:12;9.73;;;2.40;;
4756;SDS011;2392;52.578;13.426;2023-03-31T09:27:44;5.23;;;1.93;;
4756;SDS011;2392;52.578;13.426;2023-03-31T09:30:13;4.00;;;2.20;;
4756;SDS011;2392;52.578;13.426;2023-03-31T09:32:44;3.90;;;1.90;;
4756;SDS011;2392;52.578;13.426;2023-03-31T09:35:16;9.40;;;2.67;;
4756;SDS011;2392;52.578;13.426;2023-03-31T09:37:47;6.90;;;2.33;;
4756;SDS011;2392;52.578;13.426;2023-03-31T09:40:15;5.47;;;2.07;;
4756;SDS011;2392;52.578;13.426;2023-03-31T09:42:44;15.17;;;2.33;;
4756;SDS011;2392;52.578;13.426;2023-03-31T09:45:13;7.77;;;2.70;;
4756;SDS011;2392;52.578;13.426;2023-03-31T09:47:41;5.37;;;2.30;;
4756;SDS011;2392;52.578;13.426;2023-03-31T09:50:10;8.23;;;2.50;;
4756;SDS011;2392;52.578;13.426;2023-03-31T09:52:38;3.43;;;1.77;;
4756;SDS011;2392;52.578;13.426;2023-03-31T09:55:14;3.63;;;1.87;;
4756;SDS011;2392;52.578;13.426;2023-03-31T09:57:45;4.60;;;1.60;;
4756;SDS011;2392;52.578;13.426;2023-03-31T10:00:15;8.97;;;2.17;;
4756;SDS011;2392;52.578;13.426;2023-03-31T10:02:44;5.30;;;1.50;;
4756;SDS011;2392;52.578;13.426;2023-03-31T10:08:20;4.33;;;2.30;;
4756;SDS011;2392;52.578;13.426;2023-03-31T10:10:52;2.50;;;1.63;;
4756;SDS011;2392;52.578;13.426;2023-03-31T10:13:21;7.00;;;2.50;;
4756;SDS011;2392;52.578;13.426;2023-03-31T10:15:51;4.70;;;2.00;;
4756;SDS011;2392;52.578;13.426;2023-03-31T10:18:20;3.57;;;1.73;;
4756;SDS011;2392;52.578;13.426;2023-03-31T10:20:57;4.80;;;1.80;;
4756;SDS011;2392;52.578;13.426;2023-03-31T10:23:26;6.37;;;1.70;;
4756;SDS011;2392;52.578;13.426;2023-03-31T10:25:56;7.33;;;2.17;;
4756;SDS011;2392;52.578;13.426;2023-03-31T10:28:24;4.77;;;1.73;;
4756;SDS011;2392;52.578;13.426;2023-03-31T10:30:52;5.13;;;1.63;;
4756;SDS011;2392;52.578;13.426;2023-03-31T10:33:22;2.73;;;1.20;;
4756;SDS011;2392;52.578;13.426;2023-03-31T10:35:53;6.20;;;2.20;;
4756;SDS011;2392;52.578;13.426;2023-03-31T10:38:23;5.23;;;1.70;;
4756;SDS011;2392;52.578;13.426;2023-03-31T10:40:54;4.67;;;1.50;;
4756;SDS011;2392;52.578;13.426;2023-03-31T10:43:24;8.90;;;2.90;;
4756;SDS011;2392;52.578;13.426;2023-03-31T10:45:54;5.90;;;2.27;;
4756;SDS011;2392;52.578;13.426;2023-03-31T10:48:23;2.50;;;2.10;;
4756;SDS011;2392;52.578;13.426;2023-03-31T10:50:52;4.20;;;2.13;;
4756;SDS011;2392;52.578;13.426;2023-03-31T10:53:20;7.13;;;2.30;;
4756;SDS011;2392;52.578;13.426;2023-03-31T10:55:51;2.00;;;1.70;;
4756;SDS011;2392;52.578;13.426;2023-03-31T10:58:50;2.87;;;1.87;;
4756;SDS011;2392;52.578;13.426;2023-03-31T11:01:32;3.57;;;1.80;;
4756;SDS011;2392;52.578;13.426;2023-03-31T11:04:11;8.33;;;2.10;;
4756;SDS011;2392;52.578;13.426;2023-03-31T11:06:56;5.43;;;2.30;;
4756;SDS011;2392;52.578;13.426;2023-03-31T11:09:36;3.30;;;2.30;;
4756;SDS011;2392;52.578;13.426;2023-03-31T11:12:16;7.10;;;2.23;;
4756;SDS011;2392;52.578;13.426;2023-03-31T11:14:55;2.70;;;2.50;;
4756;SDS011;2392;52.578;13.426;2023-03-31T11:17:33;2.40;;;1.80;;
4756;SDS011;2392;52.578;13.426;2023-03-31T11:20:11;1.83;;;1.73;;
4756;SDS011;2392;52.578;13.426;2023-03-31T11:22:47;3.57;;;2.00;;
4756;SDS011;2392;52.578;13.426;2023-03-31T11:25:22;2.10;;;1.90;;
4756;SDS011;2392;52.578;13.426;2023-03-31T11:28:03;1.60;;;1.50;;
4756;SDS011;2392;52.578;13.426;2023-03-31T11:30:50;2.40;;;1.60;;
4756;SDS011;2392;52.578;13.426;2023-03-31T11:33:27;1.67;;;1.50;;
4756;SDS011;2392;52.578;13.426;2023-03-31T11:36:14;4.33;;;2.23;;
4756;SDS011;2392;52.578;13.426;2023-03-31T11:38:54;10.70;;;2.40;;
4756;SDS011;2392;52.578;13.426;2023-03-31T11:41:31;2.73;;;1.93;;
4756;SDS011;2392;52.578;13.426;2023-03-31T11:44:08;3.33;;;2.00;;
4756;SDS011;2392;52.578;13.426;2023-03-31T11:46:39;2.27;;;1.80;;
4756;SDS011;2392;52.578;13.426;2023-03-31T11:49:14;2.30;;;1.80;;
4756;SDS011;2392;52.578;13.426;2023-03-31T11:51:47;3.73;;;1.60;;
4756;SDS011;2392;52.578;13.426;2023-03-31T11:54:19;3.03;;;1.47;;
4756;SDS011;2392;52.578;13.426;2023-03-31T11:56:53;6.07;;;1.60;;
4756;SDS011;2392;52.578;13.426;2023-03-31T11:59:21;3.23;;;1.50;;
4756;SDS011;2392;52.578;13.426;2023-03-31T12:01:56;2.83;;;1.90;;
4756;SDS011;2392;52.578;13.426;2023-03-31T12:04:30;3.80;;;1.60;;
4756;SDS011;2392;52.578;13.426;2023-03-31T12:07:02;2.50;;;1.53;;
4756;SDS011;2392;52.578;13.426;2023-03-31T12:09:35;1.83;;;1.40;;
4756;SDS011;2392;52.578;13.426;2023-03-31T12:12:11;8.60;;;2.10;;
4756;SDS011;2392;52.578;13.426;2023-03-31T12:14:45;10.47;;;2.00;;
4756;SDS011;2392;52.578;13.426;2023-03-31T12:17:20;4.73;;;2.27;;
4756;SDS011;2392;52.578;13.426;2023-03-31T12:19:51;3.20;;;1.67;;
4756;SDS011;2392;52.578;13.426;2023-03-31T12:22:21;6.23;;;2.20;;
4756;SDS011;2392;52.578;13.426;2023-03-31T12:24:51;6.67;;;2.40;;
4756;SDS011;2392;52.578;13.426;2023-03-31T12:27:19;4.10;;;1.50;;
4756;SDS011;2392;52.578;13.426;2023-03-31T12:29:53;7.00;;;2.87;;
4756;SDS011;2392;52.578;13.426;2023-03-31T12:32:25;7.93;;;2.80;;
4756;SDS011;2392;52.578;13.426;2023-03-31T12:34:56;7.10;;;2.57;;
4756;SDS011;2392;52.578;13.426;2023-03-31T12:40:33;3.70;;;3.20;;
4756;SDS011;2392;52.578;13.426;2023-03-31T12:46:19;6.30;;;3.00;;
4756;SDS011;2392;52.578;13.426;2023-03-31T12:49:08;6.60;;;2.87;;
4756;SDS011;2392;52.578;13.426;2023-03-31T12:51:56;5.27;;;2.70;;
4756;SDS011;2392;52.578;13.426;2023-03-31T12:54:31;7.00;;;2.43;;
4756;SDS011;2392;52.578;13.426;2023-03-31T12:57:21;4.20;;;2.93;;
4756;SDS011;2392;52.578;13.426;2023-03-31T13:02:45;2.60;;;2.40;;
4756;SDS011;2392;52.578;13.426;2023-03-31T13:11:14;1.20;;;1.10;;
4756;SDS011;2392;52.578;13.426;2023-03-31T13:13:43;1.50;;;1.40;;
4756;SDS011;2392;52.578;13.426;2023-03-31T13:16:12;4.63;;;1.73;;
4756;SDS011;2392;52.578;13.426;2023-03-31T13:18:49;3.43;;;2.03;;
4756;SDS011;2392;52.578;13.426;2023-03-31T13:21:19;3.07;;;1.67;;
4756;SDS011;2392;52.578;13.426;2023-03-31T13:23:46;1.70;;;1.60;;
4756;SDS011;2392;52.578;13.426;2023-03-31T13:29:19;4.87;;;2.20;;
4756;SDS011;2392;52.578;13.426;2023-03-31T13:32:04;1.97;;;1.87;;
4756;SDS011;2392;52.578;13.426;2023-03-31T13:34:46;3.67;;;2.67;;
4756;SDS011;2392;52.578;13.426;2023-03-31T13:37:20;3.20;;;2.90;;
4756;SDS011;2392;52.578;13.426;2023-03-31T13:40:12;2.63;;;2.53;;
4756;SDS011;2392;52.578;13.426;2023-03-31T13:43:00;7.40;;;3.97;;
4756;SDS011;2392;52.578;13.426;2023-03-31T13:48:50;6.13;;;3.97;;
4756;SDS011;2392;52.578;13.426;2023-03-31T13:51:31;7.33;;;3.97;;
4756;SDS011;2392;52.578;13.426;2023-03-31T14:05:59;4.00;;;2.90;;
4756;SDS011;2392;52.578;13.426;2023-03-31T14:08:33;5.00;;;2.77;;
4756;SDS011;2392;52.578;13.426;2023-03-31T14:11:15;3.97;;;2.60;;
4756;SDS011;2392;52.578;13.426;2023-03-31T14:13:57;2.63;;;2.43;;
4756;SDS011;2392;52.578;13.426;2023-03-31T14:16:28;3.33;;;1.70;;
4756;SDS011;2392;52.578;13.426;2023-03-31T14:19:01;2.57;;;1.93;;
4756;SDS011;2392;52.578;13.426;2023-03-31T14:21:43;2.50;;;1.50;;
4756;SDS011;2392;52.578;13.426;2023-03-31T14:24:18;3.20;;;2.10;;
4756;SDS011;2392;52.578;13.426;2023-03-31T14:26:56;3.40;;;1.87;;
4756;SDS011;2392;52.578;13.426;2023-03-31T14:29:29;2.80;;;2.13;;
4756;SDS011;2392;52.578;13.426;2023-03-31T14:32:03;1.33;;;1.30;;
4756;SDS011;2392;52.578;13.426;2023-03-31T14:37:30;4.87;;;1.77;;
4756;SDS011;2392;52.578;13.426;2023-03-31T14:39:59;1.70;;;1.17;;
4756;SDS011;2392;52.578;13.426;2023-03-31T14:42:32;0.87;;;0.87;;
4756;SDS011;2392;52.578;13.426;2023-03-31T14:45:05;3.63;;;1.60;;
4756;SDS011;2392;52.578;13.426;2023-03-31T14:47:40;4.60;;;1.30;;
4756;SDS011;2392;52.578;13.426;2023-03-31T14:50:10;2.10;;;1.20;;
4756;SDS011;2392;52.578;13.426;2023-03-31T14:52:40;3.77;;;2.23;;
4756;SDS011;2392;52.578;13.426;2023-03-31T14:55:12;1.20;;;1.10;;
4756;SDS011;2392;52.578;13.426;2023-03-31T14:57:42;2.10;;;1.00;;
4756;SDS011;2392;52.578;13.426;2023-03-31T15:00:13;3.93;;;1.30;;
4756;SDS011;2392;52.578;13.426;2023-03-31T15:02:44;1.50;;;1.33;;
4756;SDS011;2392;52.578;13.426;2023-03-31T15:05:17;1.27;;;1.03;;
4756;SDS011;2392;52.578;13.426;2023-03-31T15:07:50;4.63;;;1.00;;
4756;SDS011;2392;52.578;13.426;2023-03-31T15:10:17;1.83;;;1.10;;
4756;SDS011;2392;52.578;13.426;2023-03-31T15:12:47;2.10;;;1.10;;
4756;SDS011;2392;52.578;13.426;2023-03-31T15:15:16;0.87;;;0.73;;
4756;SDS011;2392;52.578;13.426;2023-03-31T15:17:45;1.90;;;1.13;;
4756;SDS011;2392;52.578;13.426;2023-03-31T15:20:23;1.73;;;0.90;;
4756;SDS011;2392;52.578;13.426;2023-03-31T15:22:52;1.20;;;1.10;;
4756;SDS011;2392;52.578;13.426;2023-03-31T15:25:20;2.37;;;1.60;;
4756;SDS011;2392;52.578;13.426;2023-03-31T15:27:53;1.33;;;1.23;;
4756;SDS011;2392;52.578;13.426;2023-03-31T15:30:24;1.10;;;0.90;;
4756;SDS011;2392;52.578;13.426;2023-03-31T15:32:52;2.23;;;1.10;;
4756;SDS011;2392;52.578;13.426;2023-03-31T15:35:21;1.00;;;0.97;;
4756;SDS011;2392;52.578;13.426;2023-03-31T15:37:51;1.57;;;1.27;;
4756;SDS011;2392;52.578;13.426;2023-03-31T15:40:21;1.67;;;1.00;;
4756;SDS011;2392;52.578;13.426;2023-03-31T15:42:53;1.73;;;1.13;;
4756;SDS011;2392;52.578;13.426;2023-03-31T15:48:22;2.63;;;1.20;;
4756;SDS011;2392;52.578;13.426;2023-03-31T15:50:57;2.00;;;1.00;;
4756;SDS011;2392;52.578;13.426;2023-03-31T15:53:28;1.23;;;1.10;;
4756;SDS011;2392;52.578;13.426;2023-03-31T15:55:57;1.73;;;1.20;;
4756;SDS011;2392;52.578;13.426;2023-03-31T16:01:15;1.83;;;1.70;;
4756;SDS011;2392;52.578;13.426;2023-03-31T16:03:43;1.60;;;1.13;;
4756;SDS011;2392;52.578;13.426;2023-03-31T16:06:15;2.50;;;1.67;;
4756;SDS011;2392;52.578;13.426;2023-03-31T16:08:48;1.23;;;1.17;;
4756;SDS011;2392;52.578;13.426;2023-03-31T16:11:22;1.73;;;1.63;;
4756;SDS011;2392;52.578;13.426;2023-03-31T16:13:55;3.23;;;1.50;;
4756;SDS011;2392;52.578;13.426;2023-03-31T16:16:24;2.90;;;1.67;;
4756;SDS011;2392;52.578;13.426;2023-03-31T16:18:53;1.67;;;1.50;;
4756;SDS011;2392;52.578;13.426;2023-03-31T16:21:28;3.03;;;2.17;;
4756;SDS011;2392;52.578;13.426;2023-03-31T16:24:02;1.43;;;1.33;;
4756;SDS011;2392;52.578;13.426;2023-03-31T16:26:29;1.30;;;1.30;;